Time;durP1;ratioP1;P1;durP2;ratioP2;P2;SDS_P1;SDS_P2;PMS_P1;PMS_P2;Temp;Humidity;BMP_temperature;BMP_pressure;BME280_temperature;BME280_humidity;BME280_pressure;Samples;Min_cycle;Max_cycle;Signal;HPM_P1;HPM_P2
2022/06/11 00:01:30;;;;;;;9.27;5.35;;;17.10;99.90;;;;;;5071610;28;20080;-77
2022/06/11 00:03:59;;;;;;;13.75;5.85;;;17.10;99.90;;;;;;5064371;28;20055;-77
2022/06/11 00:06:27;;;;;;;12.05;6.95;;;17.10;99.90;;;;;;5072654;28;20482;-77
2022/06/11 00:08:53;;;;;;;12.35;6.70;;;17.10;99.90;;;;;;5054432;28;20040;-77
2022/06/11 00:11:20;;;;;;;9.55;6.07;;;17.00;99.90;;;;;;5054481;28;20037;-77
2022/06/11 00:13:46;;;;;;;9.18;5.53;;;16.90;99.90;;;;;;5072593;28;20051;-77
2022/06/11 00:16:14;;;;;;;11.57;5.72;;;16.90;99.90;;;;;;5054650;28;20422;-77
2022/06/11 00:18:42;;;;;;;11.00;5.00;;;17.00;99.90;;;;;;5054420;28;20068;-77
2022/06/11 00:21:08;;;;;;;7.50;3.92;;;16.90;99.90;;;;;;5054199;28;20040;-76
2022/06/11 00:23:35;;;;;;;6.07;3.28;;;16.90;99.90;;;;;;5053719;28;20502;-76
2022/06/11 00:26:02;;;;;;;7.72;2.70;;;16.80;99.90;;;;;;5072475;28;20045;-76
2022/06/11 00:28:27;;;;;;;5.28;2.83;;;16.90;99.90;;;;;;5054511;28;20541;-76
2022/06/11 00:30:53;;;;;;;7.45;2.80;;;17.00;99.90;;;;;;5071913;28;20112;-76
2022/06/11 00:33:19;;;;;;;5.70;2.88;;;16.90;99.90;;;;;;5037546;28;20093;-76
2022/06/11 00:35:45;;;;;;;5.05;2.20;;;16.90;99.90;;;;;;5054301;28;20048;-76
2022/06/11 00:38:11;;;;;;;8.02;2.63;;;16.90;99.90;;;;;;5037895;28;20041;-76
2022/06/11 00:40:40;;;;;;;12.43;3.25;;;16.90;99.90;;;;;;5053744;28;20036;-77
2022/06/11 00:43:06;;;;;;;8.85;3.22;;;16.80;99.90;;;;;;5054515;28;20047;-76
2022/06/11 00:45:41;;;;;;;6.03;2.53;;;16.70;99.90;;;;;;5072080;28;20040;-76
2022/06/11 00:48:17;;;;;;;4.25;2.40;;;16.70;99.90;;;;;;5054159;28;20052;-77
2022/06/11 00:50:51;;;;;;;7.57;2.90;;;16.70;99.90;;;;;;5053631;28;20040;-76
2022/06/11 00:53:24;;;;;;;5.88;2.47;;;16.60;99.90;;;;;;5054021;28;20505;-77
2022/06/11 00:55:50;;;;;;;6.20;2.45;;;16.60;99.90;;;;;;5053957;28;20521;-76
2022/06/11 00:58:24;;;;;;;5.80;2.95;;;16.60;99.90;;;;;;5037482;28;20044;-75
2022/06/11 01:00:59;;;;;;;4.78;2.20;;;16.50;99.90;;;;;;5053180;28;20477;-75
2022/06/11 01:03:33;;;;;;;8.30;2.20;;;16.50;99.90;;;;;;5053684;28;20119;-75
2022/06/11 01:06:19;;;;;;;6.20;2.15;;;16.40;99.90;;;;;;5037249;28;20044;-75
2022/06/11 01:09:07;;;;;;;9.32;2.30;;;16.40;99.90;;;;;;5054125;28;20076;-74
2022/06/11 01:12:05;;;;;;;6.15;2.63;;;16.40;99.90;;;;;;5053348;28;20044;-74
2022/06/11 01:14:50;;;;;;;6.22;2.55;;;16.40;99.90;;;;;;5071645;28;20032;-75
2022/06/11 01:17:30;;;;;;;10.27;2.97;;;16.30;99.90;;;;;;5053637;28;20093;-74
2022/06/11 01:20:29;;;;;;;6.80;2.13;;;16.30;99.90;;;;;;5053561;28;20037;-75
2022/06/11 01:23:29;;;;;;;11.13;2.30;;;16.20;99.90;;;;;;5071638;28;20059;-75
2022/06/11 01:26:37;;;;;;;7.95;2.38;;;16.20;99.90;;;;;;5053796;28;20047;-75
2022/06/11 01:29:11;;;;;;;6.85;1.88;;;16.10;99.90;;;;;;5051401;28;20410;-75
2022/06/11 01:31:49;;;;;;;6.20;2.05;;;16.10;99.90;;;;;;5053174;28;20044;-75
2022/06/11 01:34:27;;;;;;;9.02;2.53;;;16.10;99.90;;;;;;5053409;28;20045;-75
2022/06/11 01:36:57;;;;;;;8.27;2.35;;;16.10;99.90;;;;;;5057431;28;20047;-75
2022/06/11 01:39:32;;;;;;;9.07;2.35;;;16.00;99.90;;;;;;5057791;28;20040;-76
2022/06/11 01:42:06;;;;;;;7.22;1.90;;;16.00;99.90;;;;;;5057545;28;20406;-77
2022/06/11 01:44:38;;;;;;;6.57;2.75;;;15.90;99.90;;;;;;5057422;28;20166;-77
2022/06/11 01:47:04;;;;;;;9.30;2.10;;;15.90;99.90;;;;;;5075594;28;20040;-77
2022/06/11 01:49:33;;;;;;;8.68;2.50;;;15.90;99.90;;;;;;5075307;28;20040;-77
2022/06/11 01:52:29;;;;;;;7.57;2.70;;;15.90;99.90;;;;;;5057165;28;20115;-77
2022/06/11 01:55:24;;;;;;;5.25;2.55;;;15.90;99.90;;;;;;5057247;28;20036;-76
2022/06/11 01:58:25;;;;;;;7.97;1.70;;;15.90;99.90;;;;;;5057163;28;20047;-77
2022/06/11 02:01:12;;;;;;;7.07;2.65;;;15.80;99.90;;;;;;5056719;28;20079;-77
2022/06/11 02:03:51;;;;;;;5.75;2.03;;;15.80;99.90;;;;;;5057095;28;20044;-77
2022/06/11 02:06:53;;;;;;;8.35;2.25;;;15.80;99.90;;;;;;5057131;28;20044;-77
2022/06/11 02:09:57;;;;;;;8.38;1.77;;;15.80;99.90;;;;;;5057116;28;20044;-77
2022/06/11 02:12:32;;;;;;;;;;;15.70;99.90;;;;;;5040756;28;20044;-76
2022/06/11 02:15:23;;;;;;;5.63;1.95;;;15.70;99.90;;;;;;5057149;28;19939;-77
2022/06/11 02:18:05;;;;;;;7.55;2.28;;;15.70;99.90;;;;;;5046135;28;20520;-76
2022/06/11 02:20:45;;;;;;;6.88;2.10;;;15.70;99.90;;;;;;5039880;28;20513;-77
2022/06/11 02:23:25;;;;;;;8.57;2.00;;;15.70;99.90;;;;;;5056830;28;20052;-77
2022/06/11 02:25:56;;;;;;;7.88;1.80;;;15.70;99.90;;;;;;5056750;28;20044;-77
2022/06/11 02:28:26;;;;;;;6.97;2.03;;;15.70;99.90;;;;;;5056597;28;20044;-77
2022/06/11 02:30:54;;;;;;;6.95;1.73;;;15.70;99.90;;;;;;5056499;28;20044;-77
2022/06/11 02:33:21;;;;;;;7.38;2.70;;;15.70;99.90;;;;;;5056432;28;20076;-77
2022/06/11 02:35:57;;;;;;;10.50;1.83;;;15.70;99.90;;;;;;5056737;28;20075;-77
2022/06/11 02:38:25;;;;;;;8.82;1.98;;;15.60;99.90;;;;;;5056463;28;20490;-77
2022/06/11 02:40:53;;;;;;;7.00;2.10;;;15.50;99.90;;;;;;5055921;28;20040;-77
2022/06/11 02:43:19;;;;;;;6.80;1.92;;;15.50;99.90;;;;;;5056580;28;20383;-77
2022/06/11 02:45:46;;;;;;;9.18;2.17;;;15.50;99.90;;;;;;5056560;28;20040;-77
2022/06/11 02:48:13;;;;;;;7.93;2.53;;;15.50;99.90;;;;;;5055749;28;20043;-77
2022/06/11 02:50:39;;;;;;;6.50;2.13;;;15.40;99.90;;;;;;5055803;28;20119;-77
2022/06/11 02:53:09;;;;;;;8.77;2.20;;;15.40;99.90;;;;;;5056188;28;20076;-77
2022/06/11 02:55:36;;;;;;;6.45;2.15;;;15.30;99.90;;;;;;5056038;28;20087;-77
2022/06/11 02:58:03;;;;;;;10.52;2.80;;;15.30;99.90;;;;;;5056333;28;20062;-77
2022/06/11 03:00:34;;;;;;;8.23;2.08;;;15.30;99.90;;;;;;5055544;28;20036;-77
2022/06/11 03:03:00;;;;;;;9.48;3.05;;;15.30;99.90;;;;;;5039498;28;20044;-77
2022/06/11 03:05:29;;;;;;;7.65;2.58;;;15.30;99.90;;;;;;5055918;28;20067;-77
2022/06/11 03:07:57;;;;;;;5.50;2.10;;;15.20;99.90;;;;;;5055710;28;20075;-77
2022/06/11 03:10:24;;;;;;;8.73;2.55;;;15.20;99.90;;;;;;5055485;28;20045;-78
2022/06/11 03:12:50;;;;;;;4.60;2.63;;;15.10;99.90;;;;;;5055737;28;20044;-77
2022/06/11 03:15:17;;;;;;;12.18;3.45;;;15.00;99.90;;;;;;5055665;28;20090;-77
2022/06/11 03:17:44;;;;;;;8.23;2.88;;;15.00;99.90;;;;;;5055656;28;20048;-77
2022/06/11 03:20:12;;;;;;;10.65;3.22;;;15.00;99.90;;;;;;5055358;28;20052;-77
2022/06/11 03:22:38;;;;;;;11.55;3.10;;;15.10;99.90;;;;;;5055504;28;20036;-77
2022/06/11 03:25:04;;;;;;;10.38;3.15;;;15.10;99.90;;;;;;5055929;28;20410;-77
2022/06/11 03:27:30;;;;;;;11.10;3.30;;;15.00;99.90;;;;;;5055905;28;20056;-77
2022/06/11 03:29:55;;;;;;;10.90;3.78;;;15.10;99.90;;;;;;5055336;28;20643;-77
2022/06/11 03:32:21;;;;;;;10.50;3.45;;;15.10;99.90;;;;;;5055336;28;20045;-77
2022/06/11 03:34:47;;;;;;;9.20;3.55;;;15.10;99.90;;;;;;5055286;28;20032;-77
2022/06/11 03:37:13;;;;;;;7.35;3.33;;;15.10;99.90;;;;;;5055269;28;20028;-77
2022/06/11 03:39:39;;;;;;;9.82;3.90;;;15.20;99.90;;;;;;5038863;28;20483;-77
2022/06/11 03:42:06;;;;;;;11.55;4.68;;;15.10;99.90;;;;;;5055245;28;20131;-77
2022/06/11 03:44:31;;;;;;;10.55;3.85;;;15.20;99.90;;;;;;5038589;28;20036;-77
2022/06/11 03:46:57;;;;;;;11.38;3.92;;;15.10;99.90;;;;;;5073084;28;20458;-77
2022/06/11 03:49:23;;;;;;;15.30;5.30;;;15.10;99.90;;;;;;5055089;28;20036;-77
2022/06/11 03:51:49;;;;;;;15.52;4.47;;;15.20;99.90;;;;;;5054848;28;20036;-77
2022/06/11 03:54:16;;;;;;;11.73;4.75;;;15.20;99.90;;;;;;5038357;28;20072;-77
2022/06/11 03:56:42;;;;;;;11.95;4.00;;;15.30;99.90;;;;;;5055189;28;20036;-77
2022/06/11 03:59:08;;;;;;;8.18;3.60;;;15.20;99.90;;;;;;5053923;28;20119;-77
2022/06/11 04:01:34;;;;;;;13.80;4.25;;;15.30;99.90;;;;;;5115650;23;20126;-75
2022/06/11 04:04:07;;;;;;;11.02;4.28;;;15.30;99.90;;;;;;5112266;28;20147;-75
2022/06/11 04:06:54;;;;;;;11.75;5.00;;;15.30;99.90;;;;;;5113591;28;20035;-75
2022/06/11 04:09:28;;;;;;;9.77;3.92;;;15.40;99.90;;;;;;5113343;28;20046;-75
2022/06/11 04:11:54;;;;;;;9.63;4.45;;;15.40;99.90;;;;;;5112742;28;20501;-75
2022/06/11 04:14:19;;;;;;;13.10;5.00;;;15.40;99.90;;;;;;5112687;28;20130;-76
2022/06/11 04:17:05;;;;;;;9.18;4.00;;;15.40;99.90;;;;;;5113063;28;20404;-75
2022/06/11 04:19:34;;;;;;;8.95;4.30;;;15.50;99.90;;;;;;5113164;28;20046;-75
2022/06/11 04:22:00;;;;;;;12.57;4.35;;;15.50;99.90;;;;;;5112672;28;20489;-76
2022/06/11 04:24:28;;;;;;;13.60;4.05;;;15.50;99.90;;;;;;5111950;28;20032;-75
2022/06/11 04:26:56;;;;;;;10.88;3.75;;;15.60;99.90;;;;;;5112924;28;20035;-75
2022/06/11 04:29:28;;;;;;;13.77;3.80;;;15.50;99.90;;;;;;5113053;28;20051;-75
2022/06/11 04:31:56;;;;;;;21.08;4.10;;;15.60;99.90;;;;;;5112717;28;20067;-76
2022/06/11 04:34:23;;;;;;;9.70;3.17;;;15.60;99.90;;;;;;5112920;28;20036;-75
2022/06/11 04:36:49;;;;;;;13.20;4.30;;;15.70;99.90;;;;;;5111575;28;20043;-75
2022/06/11 04:39:18;;;;;;;11.38;3.95;;;15.70;99.90;;;;;;5113319;28;20088;-75
2022/06/11 04:41:44;;;;;;;14.20;3.20;;;15.80;99.90;;;;;;5116755;28;20040;-75
2022/06/11 04:44:10;;;;;;;18.40;4.72;;;15.80;99.90;;;;;;5122521;28;20031;-75
2022/06/11 04:46:36;;;;;;;23.15;3.90;;;15.90;99.90;;;;;;5115650;28;20035;-75
2022/06/11 04:49:02;;;;;;;13.50;3.85;;;16.10;99.90;;;;;;5113322;28;20112;-75
2022/06/11 04:51:29;;;;;;;9.45;3.42;;;16.20;99.90;;;;;;5112822;28;20044;-75
2022/06/11 04:53:55;;;;;;;12.23;4.00;;;16.50;99.90;;;;;;5112687;28;20058;-75
2022/06/11 04:56:23;;;;;;;11.07;4.65;;;16.60;99.90;;;;;;5094350;28;20075;-75
2022/06/11 04:58:49;;;;;;;15.40;5.43;;;16.70;99.90;;;;;;5111335;28;20032;-75
2022/06/11 05:01:17;;;;;;;13.45;5.47;;;16.80;99.90;;;;;;5110813;28;20074;-75
2022/06/11 05:03:43;;;;;;;12.70;5.07;;;17.00;99.90;;;;;;5112717;28;20041;-75
2022/06/11 05:06:09;;;;;;;14.30;6.00;;;17.20;99.90;;;;;;5112537;28;20036;-75
2022/06/11 05:08:35;;;;;;;16.17;6.13;;;17.20;99.90;;;;;;5112427;28;20035;-75
2022/06/11 05:11:01;;;;;;;12.73;5.45;;;17.50;99.90;;;;;;5111755;28;20117;-75
2022/06/11 05:13:26;;;;;;;16.05;5.63;;;17.60;99.90;;;;;;5112498;28;20081;-75
2022/06/11 05:15:57;;;;;;;12.13;4.88;;;17.70;99.90;;;;;;5113429;28;20043;-75
2022/06/11 05:18:23;;;;;;;13.95;5.45;;;17.80;99.90;;;;;;5112444;28;20100;-75
2022/06/11 05:20:49;;;;;;;13.32;5.13;;;17.90;99.90;;;;;;5112066;28;20050;-75
2022/06/11 05:23:14;;;;;;;10.68;4.90;;;18.00;99.90;;;;;;5111004;28;20042;-75
2022/06/11 05:25:42;;;;;;;10.38;4.10;;;18.10;99.90;;;;;;5111228;28;20039;-75
2022/06/11 05:28:13;;;;;;;13.32;4.72;;;18.20;99.90;;;;;;5112728;28;20043;-75
2022/06/11 05:30:39;;;;;;;12.07;4.55;;;18.30;99.90;;;;;;5110693;28;20043;-75
2022/06/11 05:33:05;;;;;;;11.20;4.60;;;18.50;99.90;;;;;;5112205;28;20036;-75
2022/06/11 05:35:31;;;;;;;20.73;4.78;;;18.60;99.90;;;;;;5110958;28;20115;-75
2022/06/11 05:38:00;;;;;;;11.43;4.20;;;18.60;99.90;;;;;;5111009;28;20111;-75
2022/06/11 05:40:38;;;;;;;12.55;3.53;;;18.60;99.90;;;;;;5110636;28;20110;-76
2022/06/11 05:43:05;;;;;;;15.02;4.05;;;18.70;99.90;;;;;;5112320;28;20053;-75
2022/06/11 05:45:45;;;;;;;15.60;3.70;;;18.90;99.90;;;;;;5112063;28;20043;-76
2022/06/11 05:48:11;;;;;;;9.85;3.45;;;19.00;99.90;;;;;;5110988;28;20084;-75
2022/06/11 05:50:41;;;;;;;18.42;4.88;;;19.00;99.90;;;;;;5110412;28;20533;-75
2022/06/11 05:53:08;;;;;;;16.02;4.75;;;19.00;99.90;;;;;;5111833;28;20497;-75
2022/06/11 05:55:37;;;;;;;17.80;4.15;;;19.10;99.90;;;;;;5112063;28;20040;-74
2022/06/11 05:58:06;;;;;;;13.68;4.15;;;19.10;99.90;;;;;;5111818;28;20067;-75
2022/06/11 06:00:33;;;;;;;17.42;4.13;;;19.30;99.90;;;;;;5110159;28;20412;-75
2022/06/11 06:02:58;;;;;;;15.95;4.72;;;19.40;99.90;;;;;;5110510;28;20046;-75
2022/06/11 06:05:28;;;;;;;13.02;4.20;;;19.20;99.90;;;;;;5093960;28;20028;-75
2022/06/11 06:07:54;;;;;;;22.15;5.20;;;19.30;99.90;;;;;;5112073;28;20126;-75
2022/06/11 06:10:21;;;;;;;18.27;5.45;;;19.40;99.90;;;;;;5111549;28;20071;-75
2022/06/11 06:12:46;;;;;;;13.00;4.70;;;19.60;99.90;;;;;;5111898;28;20432;-76
2022/06/11 06:15:24;;;;;;;12.35;4.50;;;19.60;99.90;;;;;;5110519;28;20036;-75
2022/06/11 06:17:51;;;;;;;18.17;4.43;;;19.70;99.90;;;;;;5110732;28;20039;-75
2022/06/11 06:20:17;;;;;;;13.43;4.30;;;19.80;99.90;;;;;;5111979;28;20039;-75
2022/06/11 06:22:44;;;;;;;13.57;4.43;;;19.80;99.90;;;;;;5114475;28;20405;-75
2022/06/11 06:25:15;;;;;;;17.60;4.25;;;20.00;99.90;;;;;;5115644;28;20122;-75
2022/06/11 06:27:40;;;;;;;19.88;4.30;;;19.90;99.90;;;;;;5115447;28;20089;-75
2022/06/11 06:30:06;;;;;;;23.70;5.25;;;20.10;99.90;;;;;;5114830;28;20043;-75
2022/06/11 06:32:32;;;;;;;21.40;4.55;;;20.00;99.90;;;;;;5115419;28;20043;-75
2022/06/11 06:34:58;;;;;;;14.70;5.13;;;20.20;99.90;;;;;;5115112;28;20039;-75
2022/06/11 06:37:24;;;;;;;13.73;4.18;;;20.20;99.90;;;;;;5115221;28;20042;-76
2022/06/11 06:39:49;;;;;;;16.77;5.18;;;20.30;99.90;;;;;;5115194;27;20042;-75
2022/06/11 06:42:15;;;;;;;17.85;5.30;;;20.30;99.90;;;;;;5115731;28;20400;-75
2022/06/11 06:44:41;;;;;;;18.80;5.78;;;20.50;99.90;;;;;;5113832;28;20123;-75
2022/06/11 06:47:06;;;;;;;19.90;5.68;;;20.70;99.90;;;;;;5115208;28;20070;-75
2022/06/11 06:49:32;;;;;;;15.45;5.38;;;20.80;99.90;;;;;;5113586;28;20408;-75
2022/06/11 06:51:57;;;;;;;21.92;5.95;;;20.60;99.90;;;;;;5114608;28;20036;-77
2022/06/11 06:54:23;;;;;;;19.77;5.18;;;20.60;99.90;;;;;;5114792;28;20493;-75
2022/06/11 06:56:49;;;;;;;12.77;4.85;;;20.70;99.90;;;;;;5113443;28;20407;-75
2022/06/11 06:59:15;;;;;;;19.90;5.88;;;20.80;99.90;;;;;;5096342;28;20044;-75
2022/06/11 07:01:40;;;;;;;20.10;5.57;;;20.70;99.90;;;;;;5112797;28;20043;-75
2022/06/11 07:04:06;;;;;;;22.80;6.55;;;20.80;99.90;;;;;;5114692;28;20039;-76
2022/06/11 07:06:34;;;;;;;23.00;5.78;;;21.00;99.90;;;;;;5114642;28;20489;-75
2022/06/11 07:09:00;;;;;;;20.08;5.13;;;21.10;99.90;;;;;;5114529;28;20081;-76
2022/06/11 07:11:25;;;;;;;22.10;4.85;;;21.30;99.90;;;;;;5112816;28;20028;-75
2022/06/11 07:13:51;;;;;;;13.90;4.55;;;21.50;99.90;;;;;;5112951;28;20191;-75
2022/06/11 07:16:22;;;;;;;17.55;4.93;;;21.60;99.90;;;;;;5114391;28;20039;-76
2022/06/11 07:18:55;;;;;;;24.77;6.55;;;21.70;99.90;;;;;;5113342;28;20513;-76
2022/06/11 07:21:25;;;;;;;21.88;5.45;;;21.60;99.90;;;;;;5108098;28;20031;-74
2022/06/11 07:23:57;;;;;;;17.25;5.20;;;21.70;99.90;;;;;;5103080;28;20043;-75
2022/06/11 07:26:34;;;;;;;20.33;4.65;;;21.70;99.90;;;;;;5102498;28;20031;-75
2022/06/11 07:29:18;;;;;;;18.27;5.38;;;21.80;99.90;;;;;;5093910;28;20032;-75
2022/06/11 07:31:46;;;;;;;23.30;5.40;;;22.10;99.90;;;;;;5093598;28;20036;-74
2022/06/11 07:34:13;;;;;;;18.45;5.75;;;22.00;99.90;;;;;;5093453;28;20044;-74
2022/06/11 07:36:39;;;;;;;15.82;5.18;;;22.00;99.90;;;;;;5075317;28;20032;-75
2022/06/11 07:39:05;;;;;;;22.52;5.75;;;22.40;99.90;;;;;;5093734;28;20086;-75
2022/06/11 07:41:30;;;;;;;23.73;4.70;;;22.30;99.90;;;;;;5098357;28;20397;-75
2022/06/11 07:43:56;;;;;;;17.23;5.35;;;22.60;99.90;;;;;;5103001;28;20115;-74
2022/06/11 07:46:22;;;;;;;21.05;5.38;;;22.70;99.70;;;;;;5109520;28;20040;-74
2022/06/11 07:48:48;;;;;;;17.58;5.30;;;22.70;98.60;;;;;;5113876;28;20035;-73
2022/06/11 07:51:19;;;;;;;15.45;4.25;;;22.90;98.70;;;;;;5113201;28;20036;-72
2022/06/11 07:53:48;;;;;;;17.48;5.15;;;22.70;97.70;;;;;;5113728;28;20075;-73
2022/06/11 07:56:16;;;;;;;15.38;4.75;;;23.00;97.80;;;;;;5113880;28;20114;-73
2022/06/11 07:58:42;;;;;;;18.70;4.68;;;23.10;98.20;;;;;;5112351;28;20035;-74
2022/06/11 08:01:07;;;;;;;17.10;4.47;;;23.00;97.60;;;;;;5111694;28;20047;-74
2022/06/11 08:03:36;;;;;;;20.98;5.25;;;23.20;97.50;;;;;;5113417;28;20036;-74
2022/06/11 08:06:04;;;;;;;20.80;5.53;;;22.70;96.70;;;;;;5113680;28;20043;-74
2022/06/11 08:08:31;;;;;;;16.92;4.55;;;22.80;97.20;;;;;;5113489;28;20047;-74
2022/06/11 08:10:58;;;;;;;21.75;5.90;;;22.80;96.90;;;;;;5113021;28;20044;-74
2022/06/11 08:13:25;;;;;;;19.50;5.57;;;22.80;96.70;;;;;;5113259;28;20043;-74
2022/06/11 08:15:52;;;;;;;22.45;5.60;;;23.10;97.00;;;;;;5102997;28;20040;-73
2022/06/11 08:18:21;;;;;;;19.15;4.68;;;23.30;97.10;;;;;;5102057;28;20075;-74
2022/06/11 08:20:47;;;;;;;15.88;4.55;;;23.20;97.20;;;;;;5100151;28;20055;-73
2022/06/11 08:23:13;;;;;;;17.65;4.47;;;22.80;96.10;;;;;;5102585;28;20108;-73
2022/06/11 08:25:39;;;;;;;14.32;5.60;;;22.80;96.00;;;;;;5102845;27;20063;-74
2022/06/11 08:28:06;;;;;;;18.60;4.90;;;22.80;95.60;;;;;;5103398;27;20573;-73
2022/06/11 08:30:33;;;;;;;18.05;4.38;;;23.00;95.60;;;;;;5103984;27;20058;-74
2022/06/11 08:32:59;;;;;;;16.73;4.82;;;23.20;95.50;;;;;;5103317;28;20054;-74
2022/06/11 08:35:28;;;;;;;22.20;5.78;;;23.40;94.70;;;;;;5098716;28;20064;-73
2022/06/11 08:37:54;;;;;;;16.52;4.88;;;23.40;94.30;;;;;;5103411;28;20043;-74
2022/06/11 08:40:30;;;;;;;16.85;4.32;;;23.20;93.80;;;;;;5101688;28;20036;-73
2022/06/11 08:43:00;;;;;;;20.73;4.35;;;23.40;94.40;;;;;;5094998;28;20127;-75
2022/06/11 08:45:57;;;;;;;18.35;5.28;;;23.60;94.80;;;;;;5091828;28;20035;-74
2022/06/11 08:48:44;;;;;;;17.55;5.18;;;23.50;93.80;;;;;;5073744;28;20498;-75
2022/06/11 08:51:18;;;;;;;17.58;4.88;;;23.50;92.30;;;;;;5092467;28;20072;-74
2022/06/11 08:53:44;;;;;;;17.83;5.00;;;23.70;94.10;;;;;;5092003;28;20051;-74
2022/06/11 08:56:24;;;;;;;19.92;5.15;;;23.60;92.50;;;;;;5102842;28;20050;-75
2022/06/11 08:59:23;;;;;;;17.20;4.78;;;23.50;91.00;;;;;;5100395;28;20043;-76
2022/06/11 09:02:04;;;;;;;20.02;4.47;;;23.80;90.90;;;;;;5091617;28;20100;-75
2022/06/11 09:05:00;;;;;;;12.32;3.58;;;24.10;91.80;;;;;;5100138;28;20039;-75
2022/06/11 09:07:44;;;;;;;19.17;4.50;;;24.20;91.60;;;;;;5103054;28;20066;-74
2022/06/11 09:10:24;;;;;;;14.15;4.70;;;24.00;87.40;;;;;;5091647;28;20055;-74
2022/06/11 09:13:08;;;;;;;15.18;4.45;;;24.10;89.40;;;;;;5090678;28;20054;-74
2022/06/11 09:15:37;;;;;;;15.43;4.65;;;24.10;89.80;;;;;;5090674;28;20507;-74
2022/06/11 09:18:18;;;;;;;18.25;4.75;;;24.50;90.20;;;;;;5090902;28;20043;-74
2022/06/11 09:21:14;;;;;;;16.77;4.30;;;24.30;86.50;;;;;;5091398;28;20043;-74
2022/06/11 09:24:11;;;;;;;14.13;4.15;;;24.40;88.50;;;;;;5092093;28;20043;-74
2022/06/11 09:26:48;;;;;;;14.52;4.07;;;24.40;84.70;;;;;;5090682;28;20040;-74
2022/06/11 09:29:29;;;;;;;16.98;3.95;;;24.20;85.60;;;;;;5092334;28;20036;-74
2022/06/11 09:32:13;;;;;;;14.13;4.18;;;23.70;87.90;;;;;;5090381;28;20059;-74
2022/06/11 09:35:13;;;;;;;13.60;3.47;;;23.60;89.80;;;;;;5091813;28;20036;-75
2022/06/11 09:38:06;;;;;;;13.40;3.80;;;23.40;86.80;;;;;;5091362;28;20119;-74
2022/06/11 09:40:43;;;;;;;13.38;3.28;;;23.30;83.40;;;;;;5090288;28;20044;-74
2022/06/11 09:43:39;;;;;;;12.90;4.03;;;23.50;82.20;;;;;;5091704;28;20506;-73
2022/06/11 09:46:07;;;;;;;12.43;3.45;;;23.10;79.70;;;;;;5091908;28;20386;-73
2022/06/11 09:49:34;;;;;;;12.70;3.72;;;22.80;83.30;;;;;;5091754;28;20036;-73
2022/06/11 09:52:26;;;;;;;12.75;3.53;;;22.80;87.30;;;;;;5011904;28;20064;-73
2022/06/11 09:55:01;;;;;;;12.68;3.08;;;22.60;77.30;;;;;;5090205;28;20105;-73
2022/06/11 09:57:38;;;;;;;9.63;2.90;;;22.70;79.80;;;;;;5091776;28;20139;-74
2022/06/11 10:00:28;;;;;;;11.35;3.20;;;23.00;80.50;;;;;;5096715;28;20444;-74
2022/06/11 10:03:35;;;;;;;15.63;3.13;;;22.80;75.10;;;;;;5094369;28;20040;-74
2022/06/11 10:06:07;;;;;;;16.40;3.97;;;22.80;77.80;;;;;;5094386;28;20039;-74
2022/06/11 10:08:38;;;;;;;10.10;2.92;;;22.70;79.60;;;;;;5095111;28;20028;-74
2022/06/11 10:11:10;;;;;;;10.93;3.17;;;22.70;81.10;;;;;;5094994;28;20054;-74
2022/06/11 10:13:54;;;;;;;12.57;3.45;;;22.30;77.80;;;;;;5095097;28;20109;-74
2022/06/11 10:16:30;;;;;;;17.40;4.22;;;22.10;81.30;;;;;;5095211;28;20081;-74
2022/06/11 10:19:01;;;;;;;14.52;3.60;;;22.20;82.80;;;;;;5097732;28;20039;-74
2022/06/11 10:21:29;;;;;;;10.13;3.13;;;22.20;80.20;;;;;;5104367;28;20028;-74
2022/06/11 10:24:01;;;;;;;12.95;3.25;;;22.30;78.80;;;;;;5103524;28;20457;-74
2022/06/11 10:26:32;;;;;;;18.02;4.22;;;22.40;82.70;;;;;;5109486;28;20039;-74
2022/06/11 10:29:26;;;;;;;12.80;2.92;;;22.00;78.60;;;;;;5115238;28;20481;-74
2022/06/11 10:32:04;;;;;;;11.32;3.65;;;21.70;77.70;;;;;;5113514;28;20463;-74
2022/06/11 10:34:31;;;;;;;12.95;3.30;;;21.70;79.80;;;;;;5113753;28;20595;-74
2022/06/11 10:37:05;;;;;;;9.52;3.42;;;21.90;78.50;;;;;;5113796;28;20031;-74
2022/06/11 10:39:43;;;;;;;12.70;3.00;;;21.70;77.70;;;;;;5113883;28;20420;-74
2022/06/11 10:42:31;;;;;;;10.13;2.80;;;21.50;78.30;;;;;;5113546;28;20047;-73
2022/06/11 10:44:58;;;;;;;19.02;3.15;;;21.40;83.60;;;;;;5115019;28;20454;-74
2022/06/11 10:47:29;;;;;;;12.73;2.78;;;21.70;84.40;;;;;;5115023;28;20110;-73
2022/06/11 10:50:13;;;;;;;11.52;3.10;;;21.60;81.10;;;;;;5114554;28;20050;-73
2022/06/11 10:53:05;;;;;;;12.98;3.38;;;21.50;78.70;;;;;;5114574;28;20040;-73
2022/06/11 10:55:40;;;;;;;12.37;3.23;;;21.40;78.90;;;;;;5114871;28;20051;-73
2022/06/11 10:58:28;;;;;;;13.98;2.95;;;21.20;78.40;;;;;;5096870;28;20105;-74
2022/06/11 11:01:00;;;;;;;13.30;3.15;;;21.30;80.00;;;;;;5113101;28;20111;-72
2022/06/11 11:03:37;;;;;;;12.65;2.90;;;21.50;81.20;;;;;;5114791;28;20043;-72
2022/06/11 11:06:05;;;;;;;12.65;3.45;;;21.60;80.60;;;;;;5114451;28;20075;-72
2022/06/11 11:08:34;;;;;;;7.82;2.92;;;21.90;81.60;;;;;;5113829;27;20424;-72
2022/06/11 11:11:00;;;;;;;11.40;3.35;;;22.00;81.80;;;;;;5114430;28;20043;-74
2022/06/11 11:13:40;;;;;;;7.40;2.47;;;22.20;82.60;;;;;;5113599;28;20039;-73
2022/06/11 11:16:11;;;;;;;15.43;3.75;;;22.40;82.60;;;;;;5114336;28;20513;-73
2022/06/11 11:18:52;;;;;;;15.48;3.33;;;22.20;78.60;;;;;;5114229;28;20039;-73
2022/06/11 11:21:55;;;;;;;13.60;3.17;;;22.00;81.60;;;;;;5112828;28;20051;-72
2022/06/11 11:24:24;;;;;;;;;;;21.80;76.50;;;;;;5089241;28;20588;-72
2022/06/11 11:26:59;;;;;;;10.45;3.17;;;21.90;79.70;;;;;;5112870;28;19959;-72
2022/06/11 11:29:32;;;;;;;13.88;2.97;;;21.80;80.50;;;;;;5112848;28;20046;-72
2022/06/11 11:32:06;;;;;;;13.77;3.40;;;21.70;79.90;;;;;;5112348;28;20043;-72
2022/06/11 11:34:48;;;;;;;12.95;3.13;;;21.80;82.80;;;;;;5113751;28;20044;-73
2022/06/11 11:37:13;;;;;;;12.73;3.03;;;22.00;83.00;;;;;;5112314;28;20118;-73
2022/06/11 11:39:59;;;;;;;10.88;3.05;;;22.10;80.50;;;;;;5113916;28;20200;-72
2022/06/11 11:42:32;;;;;;;12.48;3.00;;;22.10;82.20;;;;;;5113846;28;20035;-72
2022/06/11 11:44:57;;;;;;;18.23;2.83;;;22.10;79.20;;;;;;5113714;28;20039;-72
2022/06/11 11:47:33;;;;;;;11.80;2.88;;;22.10;78.50;;;;;;5112764;28;20039;-73
2022/06/11 11:50:07;;;;;;;11.75;3.45;;;21.80;80.00;;;;;;5112361;28;20039;-73
2022/06/11 11:52:43;;;;;;;6.53;2.40;;;21.70;80.40;;;;;;5112453;28;20092;-73
2022/06/11 11:55:24;;;;;;;10.23;3.15;;;21.60;81.20;;;;;;5112309;28;20031;-73
2022/06/11 11:58:00;;;;;;;11.38;3.33;;;21.70;79.90;;;;;;5113662;28;20069;-72
2022/06/11 12:00:46;;;;;;;12.02;2.83;;;21.90;82.30;;;;;;5112175;28;20061;-73
2022/06/11 12:03:22;;;;;;;16.38;4.03;;;22.00;80.70;;;;;;5070756;28;20128;-72
2022/06/11 12:05:51;;;;;;;12.88;3.33;;;22.20;79.50;;;;;;5095262;28;20039;-74
2022/06/11 12:08:23;;;;;;;19.50;3.78;;;21.90;79.90;;;;;;5100887;28;20043;-73
2022/06/11 12:10:51;;;;;;;10.98;2.70;;;21.70;78.00;;;;;;5092868;28;20101;-73
2022/06/11 12:13:28;;;;;;;14.48;3.03;;;21.90;79.40;;;;;;5092977;28;20119;-73
2022/06/11 12:15:57;;;;;;;17.90;3.03;;;21.90;81.40;;;;;;5091839;28;20076;-74
2022/06/11 12:18:32;;;;;;;10.13;2.70;;;22.00;80.10;;;;;;5091757;28;20051;-73
2022/06/11 12:21:05;;;;;;;11.13;3.65;;;22.10;77.10;;;;;;5091939;28;20067;-74
2022/06/11 12:23:59;;;;;;;10.85;3.38;;;22.30;79.20;;;;;;5092764;28;20039;-74
2022/06/11 12:26:28;;;;;;;12.95;2.97;;;22.30;80.00;;;;;;5092421;28;20044;-73
2022/06/11 12:29:27;;;;;;;9.88;3.65;;;22.40;81.30;;;;;;5091314;28;20044;-73
2022/06/11 12:31:58;;;;;;;11.35;3.00;;;22.50;79.50;;;;;;5074222;28;20047;-73
2022/06/11 12:34:27;;;;;;;13.95;4.65;;;22.50;78.00;;;;;;5092274;28;20166;-74
2022/06/11 12:36:58;;;;;;;11.80;3.28;;;22.60;76.40;;;;;;5090519;28;20044;-74
2022/06/11 12:39:45;;;;;;;10.82;3.00;;;22.60;76.60;;;;;;5091071;28;20396;-72
2022/06/11 12:42:27;;;;;;;13.48;3.08;;;22.80;79.70;;;;;;5091921;28;20032;-73
2022/06/11 12:44:52;;;;;;;15.27;4.20;;;22.80;78.70;;;;;;5090864;28;20170;-73
2022/06/11 12:47:26;;;;;;;9.73;2.30;;;22.60;74.80;;;;;;5091988;28;20513;-74
2022/06/11 12:50:09;;;;;;;14.80;3.35;;;22.60;76.80;;;;;;5092071;28;20039;-74
2022/06/11 12:53:03;;;;;;;16.77;3.90;;;22.80;75.50;;;;;;5092037;28;20554;-73
2022/06/11 12:55:48;;;;;;;9.80;2.78;;;22.90;74.30;;;;;;5060127;28;20332;-73
2022/06/11 12:58:29;;;;;;;14.82;2.92;;;22.80;72.90;;;;;;5090790;28;20067;-73
2022/06/11 13:00:56;;;;;;;13.30;2.80;;;22.90;73.10;;;;;;5090390;28;20043;-74
2022/06/11 13:03:30;;;;;;;8.85;2.72;;;23.00;74.70;;;;;;5092128;28;20036;-73
2022/06/11 13:06:32;;;;;;;10.57;2.42;;;23.20;74.40;;;;;;5090541;28;20048;-74
2022/06/11 13:09:29;;;;;;;8.05;2.45;;;23.40;72.50;;;;;;5091975;28;20113;-74
2022/06/11 13:12:09;;;;;;;9.55;2.58;;;23.60;72.40;;;;;;5091367;28;20072;-73